<?xml version="1.0" encoding="UTF-8" standalone="no" ?>
<gpx xmlns="http://www.topografix.com/GPX/1/1" xmlns:xsi="http://www.w3.org/2001/XMLSchema-instance" xsi:schemaLocation="http://www.topografix.com/GPX/1/1 http://www.topografix.com/GPX/1/1/gpx.xsd" version="1.1" creator="VisuGPX - https://www.visugpx.com">
  <metadata>
    <name>46 - Porte-du-Quercy : boucles au départ du Domaine des Terres Blanches</name>
    <desc><![CDATA[Cet itinéraire fait partie de la collection de EquiLiberté : www.equiliberte.org Circuit NON ACCESSIBLE aux attelages
Ces circuits ont été élaborés par le gîte équestre Domaine des Terres Blanches https://domainedesterresblanches.com/]]></desc>
  </metadata>
  <wpt lat="44.41706" lon="1.15834">
    <ele>172</ele>
    <name><![CDATA[Domaine des Terres Blanches]]></name>
    <type><![CDATA[hotel]]></type>
  </wpt>
  <trk>
    <name><![CDATA[46 - Porte-du-Quercy : Boucle Terres blanches : Le Boulve - Creyssens 8 km]]></name>
    <trkseg>
      <trkpt lat="44.41634" lon="1.15819">
        <ele>181</ele>
        <time>2021-02-08T13:24:43Z</time>
      </trkpt>
      <trkpt lat="44.41629" lon="1.15838">
        <ele>171</ele>
        <time>2021-02-08T13:30:14Z</time>
      </trkpt>
      <trkpt lat="44.41623" lon="1.15849">
        <ele>173</ele>
        <time>2021-02-08T13:30:21Z</time>
      </trkpt>
      <trkpt lat="44.41626" lon="1.15853">
        <ele>174</ele>
        <time>2021-02-08T13:30:23Z</time>
      </trkpt>
      <trkpt lat="44.41627" lon="1.15857">
        <ele>174</ele>
        <time>2021-02-08T13:30:25Z</time>
      </trkpt>
      <trkpt lat="44.41631" lon="1.1586">
        <ele>175</ele>
        <time>2021-02-08T13:30:28Z</time>
      </trkpt>
      <trkpt lat="44.41636" lon="1.15862">
        <ele>174</ele>
        <time>2021-02-08T13:30:32Z</time>
      </trkpt>
      <trkpt lat="44.41646" lon="1.15856">
        <ele>172</ele>
        <time>2021-02-08T13:30:38Z</time>
      </trkpt>
      <trkpt lat="44.41657" lon="1.15851">
        <ele>171</ele>
        <time>2021-02-08T13:30:46Z</time>
      </trkpt>
      <trkpt lat="44.41664" lon="1.15849">
        <ele>170</ele>
        <time>2021-02-08T13:30:52Z</time>
      </trkpt>
      <trkpt lat="44.41667" lon="1.15849">
        <ele>170</ele>
        <time>2021-02-08T13:30:54Z</time>
      </trkpt>
      <trkpt lat="44.41672" lon="1.15852">
        <ele>171</ele>
        <time>2021-02-08T13:31:00Z</time>
      </trkpt>
      <trkpt lat="44.41677" lon="1.15854">
        <ele>171</ele>
        <time>2021-02-08T13:31:04Z</time>
      </trkpt>
      <trkpt lat="44.41697" lon="1.15869">
        <ele>173</ele>
        <time>2021-02-08T13:31:22Z</time>
      </trkpt>
      <trkpt lat="44.41701" lon="1.15871">
        <ele>172</ele>
        <time>2021-02-08T13:31:25Z</time>
      </trkpt>
      <trkpt lat="44.41707" lon="1.15878">
        <ele>172</ele>
        <time>2021-02-08T13:31:30Z</time>
      </trkpt>
      <trkpt lat="44.41714" lon="1.15883">
        <ele>174</ele>
        <time>2021-02-08T13:31:36Z</time>
      </trkpt>
      <trkpt lat="44.41717" lon="1.15884">
        <ele>174</ele>
        <time>2021-02-08T13:31:39Z</time>
      </trkpt>
      <trkpt lat="44.41719" lon="1.15881">
        <ele>174</ele>
        <time>2021-02-08T13:31:42Z</time>
      </trkpt>
      <trkpt lat="44.41718" lon="1.15877">
        <ele>174</ele>
        <time>2021-02-08T13:31:45Z</time>
      </trkpt>
      <trkpt lat="44.41711" lon="1.15868">
        <ele>171</ele>
        <time>2021-02-08T13:32:06Z</time>
      </trkpt>
      <trkpt lat="44.41707" lon="1.15861">
        <ele>170</ele>
        <time>2021-02-08T13:32:12Z</time>
      </trkpt>
      <trkpt lat="44.41706" lon="1.15857">
        <ele>170</ele>
        <time>2021-02-08T13:32:15Z</time>
      </trkpt>
      <trkpt lat="44.41706" lon="1.15853">
        <ele>170</ele>
        <time>2021-02-08T13:32:19Z</time>
      </trkpt>
      <trkpt lat="44.41698" lon="1.15836">
        <ele>167</ele>
        <time>2021-02-08T13:32:37Z</time>
      </trkpt>
      <trkpt lat="44.41692" lon="1.1583">
        <ele>166</ele>
        <time>2021-02-08T13:32:43Z</time>
      </trkpt>
      <trkpt lat="44.41689" lon="1.15827">
        <ele>165</ele>
        <time>2021-02-08T13:32:46Z</time>
      </trkpt>
      <trkpt lat="44.41688" lon="1.15823">
        <ele>164</ele>
        <time>2021-02-08T13:32:49Z</time>
      </trkpt>
      <trkpt lat="44.41686" lon="1.15819">
        <ele>164</ele>
        <time>2021-02-08T13:32:52Z</time>
      </trkpt>
      <trkpt lat="44.41681" lon="1.1581">
        <ele>165</ele>
        <time>2021-02-08T13:33:00Z</time>
      </trkpt>
      <trkpt lat="44.41679" lon="1.15806">
        <ele>166</ele>
        <time>2021-02-08T13:33:03Z</time>
      </trkpt>
      <trkpt lat="44.41677" lon="1.15803">
        <ele>166</ele>
        <time>2021-02-08T13:33:06Z</time>
      </trkpt>
      <trkpt lat="44.41676" lon="1.15799">
        <ele>167</ele>
        <time>2021-02-08T13:33:09Z</time>
      </trkpt>
      <trkpt lat="44.41675" lon="1.15795">
        <ele>167</ele>
        <time>2021-02-08T13:33:12Z</time>
      </trkpt>
      <trkpt lat="44.41673" lon="1.15789">
        <ele>167</ele>
        <time>2021-02-08T13:33:19Z</time>
      </trkpt>
      <trkpt lat="44.41671" lon="1.15779">
        <ele>167</ele>
        <time>2021-02-08T13:33:31Z</time>
      </trkpt>
      <trkpt lat="44.41671" lon="1.15775">
        <ele>167</ele>
        <time>2021-02-08T13:33:34Z</time>
      </trkpt>
      <trkpt lat="44.41669" lon="1.15765">
        <ele>167</ele>
        <time>2021-02-08T13:33:40Z</time>
      </trkpt>
      <trkpt lat="44.41663" lon="1.15757">
        <ele>166</ele>
        <time>2021-02-08T13:33:47Z</time>
      </trkpt>
      <trkpt lat="44.4166" lon="1.15747">
        <ele>166</ele>
        <time>2021-02-08T13:34:04Z</time>
      </trkpt>
      <trkpt lat="44.4166" lon="1.15742">
        <ele>166</ele>
        <time>2021-02-08T13:34:06Z</time>
      </trkpt>
      <trkpt lat="44.4166" lon="1.15737">
        <ele>165</ele>
        <time>2021-02-08T13:34:09Z</time>
      </trkpt>
      <trkpt lat="44.41659" lon="1.15725">
        <ele>164</ele>
        <time>2021-02-08T13:34:17Z</time>
      </trkpt>
      <trkpt lat="44.41658" lon="1.15719">
        <ele>164</ele>
        <time>2021-02-08T13:34:20Z</time>
      </trkpt>
      <trkpt lat="44.41655" lon="1.15699">
        <ele>163</ele>
        <time>2021-02-08T13:34:32Z</time>
      </trkpt>
      <trkpt lat="44.41654" lon="1.15693">
        <ele>163</ele>
        <time>2021-02-08T13:34:36Z</time>
      </trkpt>
      <trkpt lat="44.41653" lon="1.15682">
        <ele>162</ele>
        <time>2021-02-08T13:34:43Z</time>
      </trkpt>
      <trkpt lat="44.41651" lon="1.15675">
        <ele>161</ele>
        <time>2021-02-08T13:34:48Z</time>
      </trkpt>
      <trkpt lat="44.41649" lon="1.15669">
        <ele>160</ele>
        <time>2021-02-08T13:34:51Z</time>
      </trkpt>
      <trkpt lat="44.41645" lon="1.15664">
        <ele>160</ele>
        <time>2021-02-08T13:34:54Z</time>
      </trkpt>
      <trkpt lat="44.41643" lon="1.1566">
        <ele>160</ele>
        <time>2021-02-08T13:34:56Z</time>
      </trkpt>
      <trkpt lat="44.41642" lon="1.15656">
        <ele>161</ele>
        <time>2021-02-08T13:34:58Z</time>
      </trkpt>
      <trkpt lat="44.41641" lon="1.15645">
        <ele>162</ele>
        <time>2021-02-08T13:35:04Z</time>
      </trkpt>
      <trkpt lat="44.41635" lon="1.15613">
        <ele>164</ele>
        <time>2021-02-08T13:35:18Z</time>
      </trkpt>
      <trkpt lat="44.41634" lon="1.15609">
        <ele>165</ele>
        <time>2021-02-08T13:35:20Z</time>
      </trkpt>
      <trkpt lat="44.41631" lon="1.15594">
        <ele>170</ele>
        <time>2021-02-08T13:35:28Z</time>
      </trkpt>
      <trkpt lat="44.4163" lon="1.1559">
        <ele>171</ele>
        <time>2021-02-08T13:35:30Z</time>
      </trkpt>
      <trkpt lat="44.41626" lon="1.15578">
        <ele>174</ele>
        <time>2021-02-08T13:35:37Z</time>
      </trkpt>
      <trkpt lat="44.41624" lon="1.15569">
        <ele>174</ele>
        <time>2021-02-08T13:35:41Z</time>
      </trkpt>
      <trkpt lat="44.41623" lon="1.15563">
        <ele>174</ele>
        <time>2021-02-08T13:35:44Z</time>
      </trkpt>
      <trkpt lat="44.41616" lon="1.1554">
        <ele>176</ele>
        <time>2021-02-08T13:35:55Z</time>
      </trkpt>
      <trkpt lat="44.41616" lon="1.15533">
        <ele>177</ele>
        <time>2021-02-08T13:35:59Z</time>
      </trkpt>
      <trkpt lat="44.41601" lon="1.15473">
        <ele>182</ele>
        <time>2021-02-08T13:36:28Z</time>
      </trkpt>
      <trkpt lat="44.41601" lon="1.15468">
        <ele>182</ele>
        <time>2021-02-08T13:36:30Z</time>
      </trkpt>
      <trkpt lat="44.41602" lon="1.15462">
        <ele>182</ele>
        <time>2021-02-08T13:36:34Z</time>
      </trkpt>
      <trkpt lat="44.41605" lon="1.15457">
        <ele>182</ele>
        <time>2021-02-08T13:36:42Z</time>
      </trkpt>
      <trkpt lat="44.41606" lon="1.15445">
        <ele>180</ele>
        <time>2021-02-08T13:36:51Z</time>
      </trkpt>
      <trkpt lat="44.41608" lon="1.15438">
        <ele>179</ele>
        <time>2021-02-08T13:36:54Z</time>
      </trkpt>
      <trkpt lat="44.41612" lon="1.15424">
        <ele>178</ele>
        <time>2021-02-08T13:37:00Z</time>
      </trkpt>
      <trkpt lat="44.41616" lon="1.15412">
        <ele>179</ele>
        <time>2021-02-08T13:37:06Z</time>
      </trkpt>
      <trkpt lat="44.41616" lon="1.15401">
        <ele>181</ele>
        <time>2021-02-08T13:37:11Z</time>
      </trkpt>
      <trkpt lat="44.41617" lon="1.15387">
        <ele>184</ele>
        <time>2021-02-08T13:37:19Z</time>
      </trkpt>
      <trkpt lat="44.41619" lon="1.15384">
        <ele>185</ele>
        <time>2021-02-08T13:37:22Z</time>
      </trkpt>
      <trkpt lat="44.4162" lon="1.1538">
        <ele>185</ele>
        <time>2021-02-08T13:37:24Z</time>
      </trkpt>
      <trkpt lat="44.41622" lon="1.15376">
        <ele>184</ele>
        <time>2021-02-08T13:37:27Z</time>
      </trkpt>
      <trkpt lat="44.41623" lon="1.15372">
        <ele>185</ele>
        <time>2021-02-08T13:37:30Z</time>
      </trkpt>
      <trkpt lat="44.41625" lon="1.15369">
        <ele>185</ele>
        <time>2021-02-08T13:37:33Z</time>
      </trkpt>
      <trkpt lat="44.4163" lon="1.15364">
        <ele>185</ele>
        <time>2021-02-08T13:37:37Z</time>
      </trkpt>
      <trkpt lat="44.41652" lon="1.15353">
        <ele>184</ele>
        <time>2021-02-08T13:37:56Z</time>
      </trkpt>
      <trkpt lat="44.41655" lon="1.1535">
        <ele>183</ele>
        <time>2021-02-08T13:37:59Z</time>
      </trkpt>
      <trkpt lat="44.41657" lon="1.15347">
        <ele>183</ele>
        <time>2021-02-08T13:38:01Z</time>
      </trkpt>
      <trkpt lat="44.41663" lon="1.15346">
        <ele>183</ele>
        <time>2021-02-08T13:38:07Z</time>
      </trkpt>
      <trkpt lat="44.41667" lon="1.15342">
        <ele>183</ele>
        <time>2021-02-08T13:38:10Z</time>
      </trkpt>
      <trkpt lat="44.4167" lon="1.1534">
        <ele>183</ele>
        <time>2021-02-08T13:38:12Z</time>
      </trkpt>
      <trkpt lat="44.41673" lon="1.15338">
        <ele>182</ele>
        <time>2021-02-08T13:38:14Z</time>
      </trkpt>
      <trkpt lat="44.41675" lon="1.15335">
        <ele>182</ele>
        <time>2021-02-08T13:38:17Z</time>
      </trkpt>
      <trkpt lat="44.41679" lon="1.15335">
        <ele>182</ele>
        <time>2021-02-08T13:38:20Z</time>
      </trkpt>
      <trkpt lat="44.41684" lon="1.15333">
        <ele>181</ele>
        <time>2021-02-08T13:38:24Z</time>
      </trkpt>
      <trkpt lat="44.41687" lon="1.15329">
        <ele>180</ele>
        <time>2021-02-08T13:38:27Z</time>
      </trkpt>
      <trkpt lat="44.41696" lon="1.15326">
        <ele>178</ele>
        <time>2021-02-08T13:38:33Z</time>
      </trkpt>
      <trkpt lat="44.41702" lon="1.15322">
        <ele>177</ele>
        <time>2021-02-08T13:38:37Z</time>
      </trkpt>
      <trkpt lat="44.41715" lon="1.15313">
        <ele>174</ele>
        <time>2021-02-08T13:38:45Z</time>
      </trkpt>
      <trkpt lat="44.41718" lon="1.15311">
        <ele>174</ele>
        <time>2021-02-08T13:38:47Z</time>
      </trkpt>
      <trkpt lat="44.41732" lon="1.15303">
        <ele>170</ele>
        <time>2021-02-08T13:38:56Z</time>
      </trkpt>
      <trkpt lat="44.41735" lon="1.15301">
        <ele>169</ele>
        <time>2021-02-08T13:38:58Z</time>
      </trkpt>
      <trkpt lat="44.41744" lon="1.15296">
        <ele>167</ele>
        <time>2021-02-08T13:39:04Z</time>
      </trkpt>
      <trkpt lat="44.41755" lon="1.15288">
        <ele>167</ele>
        <time>2021-02-08T13:39:12Z</time>
      </trkpt>
      <trkpt lat="44.41761" lon="1.15286">
        <ele>166</ele>
        <time>2021-02-08T13:39:16Z</time>
      </trkpt>
      <trkpt lat="44.41764" lon="1.15284">
        <ele>166</ele>
        <time>2021-02-08T13:39:18Z</time>
      </trkpt>
      <trkpt lat="44.41766" lon="1.15282">
        <ele>166</ele>
        <time>2021-02-08T13:39:20Z</time>
      </trkpt>
      <trkpt lat="44.41768" lon="1.15279">
        <ele>165</ele>
        <time>2021-02-08T13:39:22Z</time>
      </trkpt>
      <trkpt lat="44.4177" lon="1.15274">
        <ele>165</ele>
        <time>2021-02-08T13:39:25Z</time>
      </trkpt>
      <trkpt lat="44.41779" lon="1.15253">
        <ele>167</ele>
        <time>2021-02-08T13:39:38Z</time>
      </trkpt>
      <trkpt lat="44.41782" lon="1.15249">
        <ele>167</ele>
        <time>2021-02-08T13:39:41Z</time>
      </trkpt>
      <trkpt lat="44.41784" lon="1.15247">
        <ele>167</ele>
        <time>2021-02-08T13:39:43Z</time>
      </trkpt>
      <trkpt lat="44.41795" lon="1.15228">
        <ele>165</ele>
        <time>2021-02-08T13:39:56Z</time>
      </trkpt>
      <trkpt lat="44.418" lon="1.15219">
        <ele>163</ele>
        <time>2021-02-08T13:40:03Z</time>
      </trkpt>
      <trkpt lat="44.41802" lon="1.15214">
        <ele>164</ele>
        <time>2021-02-08T13:40:06Z</time>
      </trkpt>
      <trkpt lat="44.41819" lon="1.15179">
        <ele>164</ele>
        <time>2021-02-08T13:40:29Z</time>
      </trkpt>
      <trkpt lat="44.41821" lon="1.15176">
        <ele>164</ele>
        <time>2021-02-08T13:40:32Z</time>
      </trkpt>
      <trkpt lat="44.41823" lon="1.15173">
        <ele>164</ele>
        <time>2021-02-08T13:40:35Z</time>
      </trkpt>
      <trkpt lat="44.41824" lon="1.15169">
        <ele>164</ele>
        <time>2021-02-08T13:40:38Z</time>
      </trkpt>
      <trkpt lat="44.41826" lon="1.1516">
        <ele>165</ele>
        <time>2021-02-08T13:40:44Z</time>
      </trkpt>
      <trkpt lat="44.41856" lon="1.15109">
        <ele>157</ele>
        <time>2021-02-08T13:41:15Z</time>
      </trkpt>
      <trkpt lat="44.41869" lon="1.15086">
        <ele>158</ele>
        <time>2021-02-08T13:41:29Z</time>
      </trkpt>
      <trkpt lat="44.41884" lon="1.1507">
        <ele>157</ele>
        <time>2021-02-08T13:41:43Z</time>
      </trkpt>
      <trkpt lat="44.41896" lon="1.15049">
        <ele>156</ele>
        <time>2021-02-08T13:42:00Z</time>
      </trkpt>
      <trkpt lat="44.41931" lon="1.15013">
        <ele>154</ele>
        <time>2021-02-08T13:42:30Z</time>
      </trkpt>
      <trkpt lat="44.41937" lon="1.15007">
        <ele>154</ele>
        <time>2021-02-08T13:42:35Z</time>
      </trkpt>
      <trkpt lat="44.41941" lon="1.15004">
        <ele>155</ele>
        <time>2021-02-08T13:42:38Z</time>
      </trkpt>
      <trkpt lat="44.41944" lon="1.14951">
        <ele>156</ele>
        <time>2021-02-08T13:43:08Z</time>
      </trkpt>
      <trkpt lat="44.41948" lon="1.14921">
        <ele>154</ele>
        <time>2021-02-08T13:43:23Z</time>
      </trkpt>
      <trkpt lat="44.41949" lon="1.14915">
        <ele>154</ele>
        <time>2021-02-08T13:43:26Z</time>
      </trkpt>
      <trkpt lat="44.41949" lon="1.14909">
        <ele>154</ele>
        <time>2021-02-08T13:43:29Z</time>
      </trkpt>
      <trkpt lat="44.4195" lon="1.14904">
        <ele>154</ele>
        <time>2021-02-08T13:43:32Z</time>
      </trkpt>
      <trkpt lat="44.41951" lon="1.14881">
        <ele>155</ele>
        <time>2021-02-08T13:43:45Z</time>
      </trkpt>
      <trkpt lat="44.41952" lon="1.14876">
        <ele>155</ele>
        <time>2021-02-08T13:43:48Z</time>
      </trkpt>
      <trkpt lat="44.41953" lon="1.1487">
        <ele>155</ele>
        <time>2021-02-08T13:43:51Z</time>
      </trkpt>
      <trkpt lat="44.41952" lon="1.14865">
        <ele>155</ele>
        <time>2021-02-08T13:43:55Z</time>
      </trkpt>
      <trkpt lat="44.41962" lon="1.14814">
        <ele>151</ele>
        <time>2021-02-08T13:44:27Z</time>
      </trkpt>
      <trkpt lat="44.41964" lon="1.1481">
        <ele>151</ele>
        <time>2021-02-08T13:44:30Z</time>
      </trkpt>
      <trkpt lat="44.41965" lon="1.14807">
        <ele>151</ele>
        <time>2021-02-08T13:44:40Z</time>
      </trkpt>
      <trkpt lat="44.41966" lon="1.14796">
        <ele>153</ele>
        <time>2021-02-08T13:44:46Z</time>
      </trkpt>
      <trkpt lat="44.41969" lon="1.14776">
        <ele>152</ele>
        <time>2021-02-08T13:44:56Z</time>
      </trkpt>
      <trkpt lat="44.41969" lon="1.14763">
        <ele>152</ele>
        <time>2021-02-08T13:45:04Z</time>
      </trkpt>
      <trkpt lat="44.41968" lon="1.14759">
        <ele>152</ele>
        <time>2021-02-08T13:45:06Z</time>
      </trkpt>
      <trkpt lat="44.41967" lon="1.14755">
        <ele>152</ele>
        <time>2021-02-08T13:45:09Z</time>
      </trkpt>
      <trkpt lat="44.41963" lon="1.14729">
        <ele>151</ele>
        <time>2021-02-08T13:45:25Z</time>
      </trkpt>
      <trkpt lat="44.41963" lon="1.14724">
        <ele>151</ele>
        <time>2021-02-08T13:45:29Z</time>
      </trkpt>
      <trkpt lat="44.41961" lon="1.14719">
        <ele>151</ele>
        <time>2021-02-08T13:45:33Z</time>
      </trkpt>
      <trkpt lat="44.4194" lon="1.14705">
        <ele>154</ele>
        <time>2021-02-08T13:45:49Z</time>
      </trkpt>
      <trkpt lat="44.41938" lon="1.14703">
        <ele>153</ele>
        <time>2021-02-08T13:45:51Z</time>
      </trkpt>
      <trkpt lat="44.41937" lon="1.147">
        <ele>153</ele>
        <time>2021-02-08T13:45:53Z</time>
      </trkpt>
      <trkpt lat="44.41935" lon="1.14664">
        <ele>149</ele>
        <time>2021-02-08T13:46:11Z</time>
      </trkpt>
      <trkpt lat="44.41935" lon="1.1466">
        <ele>148</ele>
        <time>2021-02-08T13:46:13Z</time>
      </trkpt>
      <trkpt lat="44.41935" lon="1.1465">
        <ele>147</ele>
        <time>2021-02-08T13:46:18Z</time>
      </trkpt>
      <trkpt lat="44.41937" lon="1.14629">
        <ele>146</ele>
        <time>2021-02-08T13:46:28Z</time>
      </trkpt>
      <trkpt lat="44.41938" lon="1.14625">
        <ele>145</ele>
        <time>2021-02-08T13:46:31Z</time>
      </trkpt>
      <trkpt lat="44.41937" lon="1.14599">
        <ele>145</ele>
        <time>2021-02-08T13:46:50Z</time>
      </trkpt>
      <trkpt lat="44.41938" lon="1.14594">
        <ele>145</ele>
        <time>2021-02-08T13:46:52Z</time>
      </trkpt>
      <trkpt lat="44.41937" lon="1.14582">
        <ele>145</ele>
        <time>2021-02-08T13:46:58Z</time>
      </trkpt>
      <trkpt lat="44.41937" lon="1.14578">
        <ele>146</ele>
        <time>2021-02-08T13:47:00Z</time>
      </trkpt>
      <trkpt lat="44.41934" lon="1.14562">
        <ele>147</ele>
        <time>2021-02-08T13:47:08Z</time>
      </trkpt>
      <trkpt lat="44.41931" lon="1.14479">
        <ele>143</ele>
        <time>2021-02-08T13:47:36Z</time>
      </trkpt>
      <trkpt lat="44.4193" lon="1.14472">
        <ele>144</ele>
        <time>2021-02-08T13:47:39Z</time>
      </trkpt>
      <trkpt lat="44.41928" lon="1.14468">
        <ele>144</ele>
        <time>2021-02-08T13:47:42Z</time>
      </trkpt>
      <trkpt lat="44.41925" lon="1.14466">
        <ele>145</ele>
        <time>2021-02-08T13:47:44Z</time>
      </trkpt>
      <trkpt lat="44.41922" lon="1.14465">
        <ele>145</ele>
        <time>2021-02-08T13:47:46Z</time>
      </trkpt>
      <trkpt lat="44.41901" lon="1.14444">
        <ele>144</ele>
        <time>2021-02-08T13:48:05Z</time>
      </trkpt>
      <trkpt lat="44.41898" lon="1.14444">
        <ele>144</ele>
        <time>2021-02-08T13:48:07Z</time>
      </trkpt>
      <trkpt lat="44.41895" lon="1.14442">
        <ele>144</ele>
        <time>2021-02-08T13:48:09Z</time>
      </trkpt>
      <trkpt lat="44.41885" lon="1.14432">
        <ele>145</ele>
        <time>2021-02-08T13:48:18Z</time>
      </trkpt>
      <trkpt lat="44.41882" lon="1.1443">
        <ele>144</ele>
        <time>2021-02-08T13:48:20Z</time>
      </trkpt>
      <trkpt lat="44.4188" lon="1.14428">
        <ele>144</ele>
        <time>2021-02-08T13:48:22Z</time>
      </trkpt>
      <trkpt lat="44.41879" lon="1.14425">
        <ele>144</ele>
        <time>2021-02-08T13:48:24Z</time>
      </trkpt>
      <trkpt lat="44.4187" lon="1.14415">
        <ele>145</ele>
        <time>2021-02-08T13:48:33Z</time>
      </trkpt>
      <trkpt lat="44.41845" lon="1.14368">
        <ele>147</ele>
        <time>2021-02-08T13:49:02Z</time>
      </trkpt>
      <trkpt lat="44.41842" lon="1.14364">
        <ele>146</ele>
        <time>2021-02-08T13:49:05Z</time>
      </trkpt>
      <trkpt lat="44.41841" lon="1.14359">
        <ele>146</ele>
        <time>2021-02-08T13:49:08Z</time>
      </trkpt>
      <trkpt lat="44.41812" lon="1.14306">
        <ele>148</ele>
        <time>2021-02-08T13:49:39Z</time>
      </trkpt>
      <trkpt lat="44.41786" lon="1.14257">
        <ele>152</ele>
        <time>2021-02-08T13:50:09Z</time>
      </trkpt>
      <trkpt lat="44.41783" lon="1.14253">
        <ele>151</ele>
        <time>2021-02-08T13:50:12Z</time>
      </trkpt>
      <trkpt lat="44.41777" lon="1.1424">
        <ele>150</ele>
        <time>2021-02-08T13:50:22Z</time>
      </trkpt>
      <trkpt lat="44.41775" lon="1.14236">
        <ele>150</ele>
        <time>2021-02-08T13:50:25Z</time>
      </trkpt>
      <trkpt lat="44.41752" lon="1.14195">
        <ele>155</ele>
        <time>2021-02-08T13:50:52Z</time>
      </trkpt>
      <trkpt lat="44.4175" lon="1.14189">
        <ele>156</ele>
        <time>2021-02-08T13:50:56Z</time>
      </trkpt>
      <trkpt lat="44.41743" lon="1.14176">
        <ele>156</ele>
        <time>2021-02-08T13:51:05Z</time>
      </trkpt>
      <trkpt lat="44.4174" lon="1.14173">
        <ele>155</ele>
        <time>2021-02-08T13:51:08Z</time>
      </trkpt>
      <trkpt lat="44.41723" lon="1.14144">
        <ele>154</ele>
        <time>2021-02-08T13:51:38Z</time>
      </trkpt>
      <trkpt lat="44.4171" lon="1.14119">
        <ele>156</ele>
        <time>2021-02-08T13:51:53Z</time>
      </trkpt>
      <trkpt lat="44.41704" lon="1.14103">
        <ele>155</ele>
        <time>2021-02-08T13:52:04Z</time>
      </trkpt>
      <trkpt lat="44.41697" lon="1.14093">
        <ele>154</ele>
        <time>2021-02-08T13:52:10Z</time>
      </trkpt>
      <trkpt lat="44.41687" lon="1.1409">
        <ele>157</ele>
        <time>2021-02-08T13:52:19Z</time>
      </trkpt>
      <trkpt lat="44.4165" lon="1.14102">
        <ele>160</ele>
        <time>2021-02-08T13:52:58Z</time>
      </trkpt>
      <trkpt lat="44.41643" lon="1.14105">
        <ele>161</ele>
        <time>2021-02-08T13:53:05Z</time>
      </trkpt>
      <trkpt lat="44.41636" lon="1.1411">
        <ele>161</ele>
        <time>2021-02-08T13:53:11Z</time>
      </trkpt>
      <trkpt lat="44.41633" lon="1.14112">
        <ele>162</ele>
        <time>2021-02-08T13:53:14Z</time>
      </trkpt>
      <trkpt lat="44.41626" lon="1.14115">
        <ele>162</ele>
        <time>2021-02-08T13:53:20Z</time>
      </trkpt>
      <trkpt lat="44.4162" lon="1.14117">
        <ele>163</ele>
        <time>2021-02-08T13:53:26Z</time>
      </trkpt>
      <trkpt lat="44.41603" lon="1.14125">
        <ele>162</ele>
        <time>2021-02-08T13:53:39Z</time>
      </trkpt>
      <trkpt lat="44.41594" lon="1.14127">
        <ele>162</ele>
        <time>2021-02-08T13:53:45Z</time>
      </trkpt>
      <trkpt lat="44.41576" lon="1.14138">
        <ele>159</ele>
        <time>2021-02-08T13:53:59Z</time>
      </trkpt>
      <trkpt lat="44.41572" lon="1.1414">
        <ele>157</ele>
        <time>2021-02-08T13:54:02Z</time>
      </trkpt>
      <trkpt lat="44.41538" lon="1.14163">
        <ele>156</ele>
        <time>2021-02-08T13:54:28Z</time>
      </trkpt>
      <trkpt lat="44.41531" lon="1.14168">
        <ele>154</ele>
        <time>2021-02-08T13:54:35Z</time>
      </trkpt>
      <trkpt lat="44.41522" lon="1.14174">
        <ele>153</ele>
        <time>2021-02-08T13:54:43Z</time>
      </trkpt>
      <trkpt lat="44.41518" lon="1.14176">
        <ele>153</ele>
        <time>2021-02-08T13:54:46Z</time>
      </trkpt>
      <trkpt lat="44.41515" lon="1.14176">
        <ele>153</ele>
        <time>2021-02-08T13:54:49Z</time>
      </trkpt>
      <trkpt lat="44.41474" lon="1.14173">
        <ele>155</ele>
        <time>2021-02-08T13:55:20Z</time>
      </trkpt>
      <trkpt lat="44.4143" lon="1.14165">
        <ele>151</ele>
        <time>2021-02-08T13:55:51Z</time>
      </trkpt>
      <trkpt lat="44.41407" lon="1.14165">
        <ele>149</ele>
        <time>2021-02-08T13:56:08Z</time>
      </trkpt>
      <trkpt lat="44.41404" lon="1.14165">
        <ele>148</ele>
        <time>2021-02-08T13:56:10Z</time>
      </trkpt>
      <trkpt lat="44.4137" lon="1.14175">
        <ele>149</ele>
        <time>2021-02-08T13:56:35Z</time>
      </trkpt>
      <trkpt lat="44.41341" lon="1.14175">
        <ele>149</ele>
        <time>2021-02-08T13:56:55Z</time>
      </trkpt>
      <trkpt lat="44.41336" lon="1.14176">
        <ele>150</ele>
        <time>2021-02-08T13:56:57Z</time>
      </trkpt>
      <trkpt lat="44.41332" lon="1.14178">
        <ele>150</ele>
        <time>2021-02-08T13:57:00Z</time>
      </trkpt>
      <trkpt lat="44.41267" lon="1.14209">
        <ele>154</ele>
        <time>2021-02-08T13:57:25Z</time>
      </trkpt>
      <trkpt lat="44.41214" lon="1.14251">
        <ele>154</ele>
        <time>2021-02-08T13:57:45Z</time>
      </trkpt>
      <trkpt lat="44.41198" lon="1.14267">
        <ele>155</ele>
        <time>2021-02-08T13:57:55Z</time>
      </trkpt>
      <trkpt lat="44.41195" lon="1.14273">
        <ele>155</ele>
        <time>2021-02-08T13:58:00Z</time>
      </trkpt>
      <trkpt lat="44.41187" lon="1.14281">
        <ele>154</ele>
        <time>2021-02-08T13:58:06Z</time>
      </trkpt>
      <trkpt lat="44.41183" lon="1.14284">
        <ele>155</ele>
        <time>2021-02-08T13:58:10Z</time>
      </trkpt>
      <trkpt lat="44.4118" lon="1.1429">
        <ele>155</ele>
        <time>2021-02-08T13:58:15Z</time>
      </trkpt>
      <trkpt lat="44.41176" lon="1.14296">
        <ele>156</ele>
        <time>2021-02-08T13:58:19Z</time>
      </trkpt>
      <trkpt lat="44.41167" lon="1.14309">
        <ele>158</ele>
        <time>2021-02-08T13:58:26Z</time>
      </trkpt>
      <trkpt lat="44.41163" lon="1.14313">
        <ele>158</ele>
        <time>2021-02-08T13:58:28Z</time>
      </trkpt>
      <trkpt lat="44.41149" lon="1.14335">
        <ele>156</ele>
        <time>2021-02-08T13:58:43Z</time>
      </trkpt>
      <trkpt lat="44.41139" lon="1.1435">
        <ele>154</ele>
        <time>2021-02-08T13:58:55Z</time>
      </trkpt>
      <trkpt lat="44.41136" lon="1.14353">
        <ele>154</ele>
        <time>2021-02-08T13:58:58Z</time>
      </trkpt>
      <trkpt lat="44.41128" lon="1.14364">
        <ele>148</ele>
        <time>2021-02-08T13:59:06Z</time>
      </trkpt>
      <trkpt lat="44.41123" lon="1.14383">
        <ele>149</ele>
        <time>2021-02-08T13:59:14Z</time>
      </trkpt>
      <trkpt lat="44.41117" lon="1.14398">
        <ele>151</ele>
        <time>2021-02-08T13:59:21Z</time>
      </trkpt>
      <trkpt lat="44.41116" lon="1.14403">
        <ele>152</ele>
        <time>2021-02-08T13:59:24Z</time>
      </trkpt>
      <trkpt lat="44.41114" lon="1.14409">
        <ele>153</ele>
        <time>2021-02-08T13:59:29Z</time>
      </trkpt>
      <trkpt lat="44.41115" lon="1.14415">
        <ele>154</ele>
        <time>2021-02-08T13:59:32Z</time>
      </trkpt>
      <trkpt lat="44.41115" lon="1.14421">
        <ele>155</ele>
        <time>2021-02-08T13:59:35Z</time>
      </trkpt>
      <trkpt lat="44.41112" lon="1.14432">
        <ele>156</ele>
        <time>2021-02-08T13:59:41Z</time>
      </trkpt>
      <trkpt lat="44.41112" lon="1.14438">
        <ele>156</ele>
        <time>2021-02-08T13:59:44Z</time>
      </trkpt>
      <trkpt lat="44.41109" lon="1.14442">
        <ele>157</ele>
        <time>2021-02-08T13:59:47Z</time>
      </trkpt>
      <trkpt lat="44.41102" lon="1.14464">
        <ele>159</ele>
        <time>2021-02-08T14:00:00Z</time>
      </trkpt>
      <trkpt lat="44.41103" lon="1.14477">
        <ele>158</ele>
        <time>2021-02-08T14:00:07Z</time>
      </trkpt>
      <trkpt lat="44.41121" lon="1.14507">
        <ele>160</ele>
        <time>2021-02-08T14:00:31Z</time>
      </trkpt>
      <trkpt lat="44.41128" lon="1.14515">
        <ele>160</ele>
        <time>2021-02-08T14:00:38Z</time>
      </trkpt>
      <trkpt lat="44.41137" lon="1.14529">
        <ele>162</ele>
        <time>2021-02-08T14:00:46Z</time>
      </trkpt>
      <trkpt lat="44.41141" lon="1.14532">
        <ele>163</ele>
        <time>2021-02-08T14:00:49Z</time>
      </trkpt>
      <trkpt lat="44.41156" lon="1.1453">
        <ele>168</ele>
        <time>2021-02-08T14:00:58Z</time>
      </trkpt>
      <trkpt lat="44.41226" lon="1.14506">
        <ele>170</ele>
        <time>2021-02-08T14:01:28Z</time>
      </trkpt>
      <trkpt lat="44.41249" lon="1.14499">
        <ele>169</ele>
        <time>2021-02-08T14:01:35Z</time>
      </trkpt>
      <trkpt lat="44.41256" lon="1.145">
        <ele>170</ele>
        <time>2021-02-08T14:01:37Z</time>
      </trkpt>
      <trkpt lat="44.41268" lon="1.14507">
        <ele>171</ele>
        <time>2021-02-08T14:01:41Z</time>
      </trkpt>
      <trkpt lat="44.41273" lon="1.14514">
        <ele>171</ele>
        <time>2021-02-08T14:01:43Z</time>
      </trkpt>
      <trkpt lat="44.41278" lon="1.14521">
        <ele>171</ele>
        <time>2021-02-08T14:01:45Z</time>
      </trkpt>
      <trkpt lat="44.41313" lon="1.14557">
        <ele>171</ele>
        <time>2021-02-08T14:01:55Z</time>
      </trkpt>
      <trkpt lat="44.41325" lon="1.14563">
        <ele>171</ele>
        <time>2021-02-08T14:01:59Z</time>
      </trkpt>
      <trkpt lat="44.41354" lon="1.14569">
        <ele>173</ele>
        <time>2021-02-08T14:02:07Z</time>
      </trkpt>
      <trkpt lat="44.41365" lon="1.14568">
        <ele>174</ele>
        <time>2021-02-08T14:02:13Z</time>
      </trkpt>
      <trkpt lat="44.41369" lon="1.14568">
        <ele>174</ele>
        <time>2021-02-08T14:02:16Z</time>
      </trkpt>
      <trkpt lat="44.41382" lon="1.14576">
        <ele>177</ele>
        <time>2021-02-08T14:02:25Z</time>
      </trkpt>
      <trkpt lat="44.41389" lon="1.14584">
        <ele>176</ele>
        <time>2021-02-08T14:02:42Z</time>
      </trkpt>
      <trkpt lat="44.41392" lon="1.14588">
        <ele>176</ele>
        <time>2021-02-08T14:02:45Z</time>
      </trkpt>
      <trkpt lat="44.41398" lon="1.14603">
        <ele>176</ele>
        <time>2021-02-08T14:02:56Z</time>
      </trkpt>
      <trkpt lat="44.41399" lon="1.14609">
        <ele>176</ele>
        <time>2021-02-08T14:02:59Z</time>
      </trkpt>
      <trkpt lat="44.41408" lon="1.1462">
        <ele>174</ele>
        <time>2021-02-08T14:03:06Z</time>
      </trkpt>
      <trkpt lat="44.41409" lon="1.14624">
        <ele>174</ele>
        <time>2021-02-08T14:03:08Z</time>
      </trkpt>
      <trkpt lat="44.41411" lon="1.14627">
        <ele>174</ele>
        <time>2021-02-08T14:03:11Z</time>
      </trkpt>
      <trkpt lat="44.41412" lon="1.14631">
        <ele>174</ele>
        <time>2021-02-08T14:03:23Z</time>
      </trkpt>
      <trkpt lat="44.4142" lon="1.14649">
        <ele>173</ele>
        <time>2021-02-08T14:03:35Z</time>
      </trkpt>
      <trkpt lat="44.41427" lon="1.14665">
        <ele>173</ele>
        <time>2021-02-08T14:03:42Z</time>
      </trkpt>
      <trkpt lat="44.41431" lon="1.14673">
        <ele>172</ele>
        <time>2021-02-08T14:03:46Z</time>
      </trkpt>
      <trkpt lat="44.41436" lon="1.14691">
        <ele>171</ele>
        <time>2021-02-08T14:03:55Z</time>
      </trkpt>
      <trkpt lat="44.41442" lon="1.14712">
        <ele>172</ele>
        <time>2021-02-08T14:04:02Z</time>
      </trkpt>
      <trkpt lat="44.41467" lon="1.14808">
        <ele>170</ele>
        <time>2021-02-08T14:04:16Z</time>
      </trkpt>
      <trkpt lat="44.41481" lon="1.14884">
        <ele>169</ele>
        <time>2021-02-08T14:04:26Z</time>
      </trkpt>
      <trkpt lat="44.41487" lon="1.14904">
        <ele>170</ele>
        <time>2021-02-08T14:04:30Z</time>
      </trkpt>
      <trkpt lat="44.41489" lon="1.14912">
        <ele>171</ele>
        <time>2021-02-08T14:04:32Z</time>
      </trkpt>
      <trkpt lat="44.41492" lon="1.14921">
        <ele>172</ele>
        <time>2021-02-08T14:04:35Z</time>
      </trkpt>
      <trkpt lat="44.41503" lon="1.14959">
        <ele>176</ele>
        <time>2021-02-08T14:04:54Z</time>
      </trkpt>
      <trkpt lat="44.41503" lon="1.14964">
        <ele>176</ele>
        <time>2021-02-08T14:04:57Z</time>
      </trkpt>
      <trkpt lat="44.41502" lon="1.1497">
        <ele>176</ele>
        <time>2021-02-08T14:05:00Z</time>
      </trkpt>
      <trkpt lat="44.41499" lon="1.14975">
        <ele>176</ele>
        <time>2021-02-08T14:05:03Z</time>
      </trkpt>
      <trkpt lat="44.41495" lon="1.14977">
        <ele>177</ele>
        <time>2021-02-08T14:05:07Z</time>
      </trkpt>
      <trkpt lat="44.41485" lon="1.14985">
        <ele>179</ele>
        <time>2021-02-08T14:05:15Z</time>
      </trkpt>
      <trkpt lat="44.41478" lon="1.14991">
        <ele>180</ele>
        <time>2021-02-08T14:05:20Z</time>
      </trkpt>
      <trkpt lat="44.41472" lon="1.15001">
        <ele>181</ele>
        <time>2021-02-08T14:05:24Z</time>
      </trkpt>
      <trkpt lat="44.4147" lon="1.15006">
        <ele>181</ele>
        <time>2021-02-08T14:05:26Z</time>
      </trkpt>
      <trkpt lat="44.41458" lon="1.15026">
        <ele>179</ele>
        <time>2021-02-08T14:05:39Z</time>
      </trkpt>
      <trkpt lat="44.41442" lon="1.15041">
        <ele>178</ele>
        <time>2021-02-08T14:05:51Z</time>
      </trkpt>
      <trkpt lat="44.41437" lon="1.15051">
        <ele>176</ele>
        <time>2021-02-08T14:05:57Z</time>
      </trkpt>
      <trkpt lat="44.41438" lon="1.15063">
        <ele>174</ele>
        <time>2021-02-08T14:06:03Z</time>
      </trkpt>
      <trkpt lat="44.41439" lon="1.15069">
        <ele>173</ele>
        <time>2021-02-08T14:06:06Z</time>
      </trkpt>
      <trkpt lat="44.4144" lon="1.15075">
        <ele>172</ele>
        <time>2021-02-08T14:06:09Z</time>
      </trkpt>
      <trkpt lat="44.41441" lon="1.15081">
        <ele>171</ele>
        <time>2021-02-08T14:06:13Z</time>
      </trkpt>
      <trkpt lat="44.41442" lon="1.15086">
        <ele>170</ele>
        <time>2021-02-08T14:06:16Z</time>
      </trkpt>
      <trkpt lat="44.41438" lon="1.15095">
        <ele>171</ele>
        <time>2021-02-08T14:06:21Z</time>
      </trkpt>
      <trkpt lat="44.41435" lon="1.15106">
        <ele>171</ele>
        <time>2021-02-08T14:06:28Z</time>
      </trkpt>
      <trkpt lat="44.41433" lon="1.15114">
        <ele>171</ele>
        <time>2021-02-08T14:06:32Z</time>
      </trkpt>
      <trkpt lat="44.41428" lon="1.15127">
        <ele>172</ele>
        <time>2021-02-08T14:06:39Z</time>
      </trkpt>
      <trkpt lat="44.41427" lon="1.15131">
        <ele>173</ele>
        <time>2021-02-08T14:06:41Z</time>
      </trkpt>
      <trkpt lat="44.41421" lon="1.15136">
        <ele>173</ele>
        <time>2021-02-08T14:06:45Z</time>
      </trkpt>
      <trkpt lat="44.41402" lon="1.15175">
        <ele>175</ele>
        <time>2021-02-08T14:07:06Z</time>
      </trkpt>
      <trkpt lat="44.41391" lon="1.15201">
        <ele>175</ele>
        <time>2021-02-08T14:07:20Z</time>
      </trkpt>
      <trkpt lat="44.41352" lon="1.1526">
        <ele>175</ele>
        <time>2021-02-08T14:07:49Z</time>
      </trkpt>
      <trkpt lat="44.41349" lon="1.15266">
        <ele>175</ele>
        <time>2021-02-08T14:07:51Z</time>
      </trkpt>
      <trkpt lat="44.4134" lon="1.15276">
        <ele>175</ele>
        <time>2021-02-08T14:07:55Z</time>
      </trkpt>
      <trkpt lat="44.41324" lon="1.153">
        <ele>176</ele>
        <time>2021-02-08T14:08:03Z</time>
      </trkpt>
      <trkpt lat="44.41307" lon="1.15318">
        <ele>179</ele>
        <time>2021-02-08T14:08:09Z</time>
      </trkpt>
      <trkpt lat="44.41296" lon="1.15327">
        <ele>179</ele>
        <time>2021-02-08T14:08:13Z</time>
      </trkpt>
      <trkpt lat="44.41292" lon="1.15332">
        <ele>179</ele>
        <time>2021-02-08T14:08:15Z</time>
      </trkpt>
      <trkpt lat="44.41273" lon="1.15343">
        <ele>182</ele>
        <time>2021-02-08T14:08:27Z</time>
      </trkpt>
      <trkpt lat="44.41269" lon="1.15346">
        <ele>183</ele>
        <time>2021-02-08T14:08:31Z</time>
      </trkpt>
      <trkpt lat="44.41261" lon="1.15351">
        <ele>185</ele>
        <time>2021-02-08T14:08:37Z</time>
      </trkpt>
      <trkpt lat="44.41257" lon="1.15356">
        <ele>185</ele>
        <time>2021-02-08T14:08:40Z</time>
      </trkpt>
      <trkpt lat="44.41232" lon="1.15379">
        <ele>186</ele>
        <time>2021-02-08T14:08:52Z</time>
      </trkpt>
      <trkpt lat="44.41223" lon="1.15387">
        <ele>186</ele>
        <time>2021-02-08T14:08:55Z</time>
      </trkpt>
      <trkpt lat="44.4122" lon="1.1539">
        <ele>186</ele>
        <time>2021-02-08T14:08:56Z</time>
      </trkpt>
      <trkpt lat="44.41196" lon="1.1542">
        <ele>183</ele>
        <time>2021-02-08T14:09:06Z</time>
      </trkpt>
      <trkpt lat="44.41192" lon="1.15422">
        <ele>184</ele>
        <time>2021-02-08T14:09:08Z</time>
      </trkpt>
      <trkpt lat="44.41188" lon="1.15425">
        <ele>185</ele>
        <time>2021-02-08T14:09:10Z</time>
      </trkpt>
      <trkpt lat="44.41151" lon="1.15459">
        <ele>192</ele>
        <time>2021-02-08T14:09:40Z</time>
      </trkpt>
      <trkpt lat="44.41131" lon="1.1547">
        <ele>196</ele>
        <time>2021-02-08T14:09:57Z</time>
      </trkpt>
      <trkpt lat="44.41126" lon="1.15471">
        <ele>197</ele>
        <time>2021-02-08T14:10:01Z</time>
      </trkpt>
      <trkpt lat="44.41119" lon="1.15477">
        <ele>198</ele>
        <time>2021-02-08T14:10:08Z</time>
      </trkpt>
      <trkpt lat="44.41116" lon="1.15479">
        <ele>199</ele>
        <time>2021-02-08T14:10:12Z</time>
      </trkpt>
      <trkpt lat="44.41104" lon="1.15495">
        <ele>202</ele>
        <time>2021-02-08T14:10:27Z</time>
      </trkpt>
      <trkpt lat="44.41098" lon="1.15499">
        <ele>207</ele>
        <time>2021-02-08T14:10:32Z</time>
      </trkpt>
      <trkpt lat="44.41076" lon="1.15512">
        <ele>213</ele>
        <time>2021-02-08T14:10:50Z</time>
      </trkpt>
      <trkpt lat="44.41068" lon="1.15514">
        <ele>215</ele>
        <time>2021-02-08T14:10:56Z</time>
      </trkpt>
      <trkpt lat="44.41066" lon="1.15515">
        <ele>214</ele>
        <time>2021-02-08T14:10:58Z</time>
      </trkpt>
      <trkpt lat="44.41035" lon="1.15533">
        <ele>220</ele>
        <time>2021-02-08T14:11:30Z</time>
      </trkpt>
      <trkpt lat="44.41032" lon="1.15534">
        <ele>221</ele>
        <time>2021-02-08T14:11:35Z</time>
      </trkpt>
      <trkpt lat="44.41029" lon="1.15535">
        <ele>221</ele>
        <time>2021-02-08T14:11:37Z</time>
      </trkpt>
      <trkpt lat="44.41021" lon="1.15536">
        <ele>221</ele>
        <time>2021-02-08T14:11:45Z</time>
      </trkpt>
      <trkpt lat="44.41018" lon="1.15535">
        <ele>221</ele>
        <time>2021-02-08T14:11:51Z</time>
      </trkpt>
      <trkpt lat="44.41013" lon="1.1554">
        <ele>222</ele>
        <time>2021-02-08T14:11:57Z</time>
      </trkpt>
      <trkpt lat="44.4101" lon="1.1554">
        <ele>224</ele>
        <time>2021-02-08T14:11:59Z</time>
      </trkpt>
      <trkpt lat="44.41004" lon="1.15542">
        <ele>224</ele>
        <time>2021-02-08T14:12:06Z</time>
      </trkpt>
      <trkpt lat="44.40998" lon="1.15542">
        <ele>224</ele>
        <time>2021-02-08T14:12:11Z</time>
      </trkpt>
      <trkpt lat="44.40994" lon="1.15543">
        <ele>224</ele>
        <time>2021-02-08T14:12:15Z</time>
      </trkpt>
      <trkpt lat="44.40982" lon="1.15545">
        <ele>225</ele>
        <time>2021-02-08T14:12:26Z</time>
      </trkpt>
      <trkpt lat="44.40971" lon="1.15549">
        <ele>227</ele>
        <time>2021-02-08T14:12:37Z</time>
      </trkpt>
      <trkpt lat="44.40969" lon="1.1555">
        <ele>227</ele>
        <time>2021-02-08T14:12:40Z</time>
      </trkpt>
      <trkpt lat="44.40966" lon="1.15552">
        <ele>227</ele>
        <time>2021-02-08T14:12:43Z</time>
      </trkpt>
      <trkpt lat="44.40955" lon="1.15561">
        <ele>227</ele>
        <time>2021-02-08T14:12:56Z</time>
      </trkpt>
      <trkpt lat="44.40952" lon="1.15562">
        <ele>227</ele>
        <time>2021-02-08T14:12:59Z</time>
      </trkpt>
      <trkpt lat="44.40931" lon="1.15575">
        <ele>232</ele>
        <time>2021-02-08T14:13:22Z</time>
      </trkpt>
      <trkpt lat="44.40929" lon="1.15578">
        <ele>233</ele>
        <time>2021-02-08T14:13:25Z</time>
      </trkpt>
      <trkpt lat="44.40915" lon="1.1559">
        <ele>237</ele>
        <time>2021-02-08T14:13:53Z</time>
      </trkpt>
      <trkpt lat="44.40913" lon="1.15594">
        <ele>238</ele>
        <time>2021-02-08T14:13:56Z</time>
      </trkpt>
      <trkpt lat="44.40908" lon="1.15601">
        <ele>240</ele>
        <time>2021-02-08T14:14:01Z</time>
      </trkpt>
      <trkpt lat="44.40903" lon="1.15606">
        <ele>242</ele>
        <time>2021-02-08T14:14:06Z</time>
      </trkpt>
      <trkpt lat="44.40891" lon="1.15625">
        <ele>245</ele>
        <time>2021-02-08T14:14:21Z</time>
      </trkpt>
      <trkpt lat="44.40888" lon="1.15628">
        <ele>246</ele>
        <time>2021-02-08T14:14:24Z</time>
      </trkpt>
      <trkpt lat="44.40885" lon="1.15632">
        <ele>246</ele>
        <time>2021-02-08T14:14:27Z</time>
      </trkpt>
      <trkpt lat="44.40883" lon="1.15635">
        <ele>247</ele>
        <time>2021-02-08T14:14:30Z</time>
      </trkpt>
      <trkpt lat="44.40881" lon="1.15637">
        <ele>247</ele>
        <time>2021-02-08T14:14:32Z</time>
      </trkpt>
      <trkpt lat="44.40876" lon="1.15641">
        <ele>248</ele>
        <time>2021-02-08T14:14:37Z</time>
      </trkpt>
      <trkpt lat="44.40873" lon="1.15644">
        <ele>248</ele>
        <time>2021-02-08T14:14:40Z</time>
      </trkpt>
      <trkpt lat="44.40872" lon="1.15646">
        <ele>250</ele>
        <time>2021-02-08T14:14:44Z</time>
      </trkpt>
      <trkpt lat="44.40871" lon="1.15651">
        <ele>251</ele>
        <time>2021-02-08T14:14:47Z</time>
      </trkpt>
      <trkpt lat="44.40867" lon="1.15664">
        <ele>254</ele>
        <time>2021-02-08T14:14:59Z</time>
      </trkpt>
      <trkpt lat="44.40866" lon="1.1567">
        <ele>255</ele>
        <time>2021-02-08T14:15:04Z</time>
      </trkpt>
      <trkpt lat="44.40866" lon="1.15677">
        <ele>255</ele>
        <time>2021-02-08T14:15:12Z</time>
      </trkpt>
      <trkpt lat="44.40865" lon="1.15684">
        <ele>255</ele>
        <time>2021-02-08T14:15:17Z</time>
      </trkpt>
      <trkpt lat="44.40866" lon="1.15695">
        <ele>253</ele>
        <time>2021-02-08T14:15:24Z</time>
      </trkpt>
      <trkpt lat="44.40866" lon="1.15701">
        <ele>252</ele>
        <time>2021-02-08T14:15:28Z</time>
      </trkpt>
      <trkpt lat="44.40867" lon="1.15706">
        <ele>253</ele>
        <time>2021-02-08T14:15:31Z</time>
      </trkpt>
      <trkpt lat="44.40867" lon="1.1571">
        <ele>254</ele>
        <time>2021-02-08T14:15:33Z</time>
      </trkpt>
      <trkpt lat="44.40873" lon="1.15718">
        <ele>256</ele>
        <time>2021-02-08T14:15:39Z</time>
      </trkpt>
      <trkpt lat="44.40874" lon="1.15723">
        <ele>256</ele>
        <time>2021-02-08T14:15:42Z</time>
      </trkpt>
      <trkpt lat="44.40874" lon="1.15727">
        <ele>257</ele>
        <time>2021-02-08T14:15:45Z</time>
      </trkpt>
      <trkpt lat="44.40873" lon="1.15733">
        <ele>258</ele>
        <time>2021-02-08T14:15:48Z</time>
      </trkpt>
      <trkpt lat="44.40871" lon="1.15736">
        <ele>259</ele>
        <time>2021-02-08T14:15:51Z</time>
      </trkpt>
      <trkpt lat="44.40859" lon="1.15764">
        <ele>261</ele>
        <time>2021-02-08T14:16:12Z</time>
      </trkpt>
      <trkpt lat="44.40853" lon="1.15786">
        <ele>260</ele>
        <time>2021-02-08T14:16:26Z</time>
      </trkpt>
      <trkpt lat="44.4085" lon="1.15794">
        <ele>261</ele>
        <time>2021-02-08T14:16:33Z</time>
      </trkpt>
      <trkpt lat="44.40847" lon="1.15798">
        <ele>261</ele>
        <time>2021-02-08T14:16:37Z</time>
      </trkpt>
      <trkpt lat="44.40845" lon="1.15802">
        <ele>262</ele>
        <time>2021-02-08T14:16:40Z</time>
      </trkpt>
      <trkpt lat="44.40842" lon="1.15805">
        <ele>262</ele>
        <time>2021-02-08T14:16:42Z</time>
      </trkpt>
      <trkpt lat="44.40832" lon="1.15819">
        <ele>261</ele>
        <time>2021-02-08T14:16:55Z</time>
      </trkpt>
      <trkpt lat="44.4083" lon="1.15822">
        <ele>261</ele>
        <time>2021-02-08T14:16:57Z</time>
      </trkpt>
      <trkpt lat="44.40827" lon="1.15829">
        <ele>261</ele>
        <time>2021-02-08T14:17:01Z</time>
      </trkpt>
      <trkpt lat="44.40825" lon="1.15835">
        <ele>262</ele>
        <time>2021-02-08T14:17:04Z</time>
      </trkpt>
      <trkpt lat="44.40821" lon="1.15842">
        <ele>265</ele>
        <time>2021-02-08T14:17:08Z</time>
      </trkpt>
      <trkpt lat="44.40818" lon="1.15849">
        <ele>265</ele>
        <time>2021-02-08T14:17:12Z</time>
      </trkpt>
      <trkpt lat="44.40811" lon="1.15874">
        <ele>266</ele>
        <time>2021-02-08T14:17:29Z</time>
      </trkpt>
      <trkpt lat="44.40807" lon="1.1588">
        <ele>264</ele>
        <time>2021-02-08T14:17:33Z</time>
      </trkpt>
      <trkpt lat="44.40806" lon="1.15884">
        <ele>263</ele>
        <time>2021-02-08T14:17:36Z</time>
      </trkpt>
      <trkpt lat="44.40803" lon="1.1589">
        <ele>262</ele>
        <time>2021-02-08T14:17:49Z</time>
      </trkpt>
      <trkpt lat="44.408" lon="1.15899">
        <ele>262</ele>
        <time>2021-02-08T14:17:55Z</time>
      </trkpt>
      <trkpt lat="44.40796" lon="1.1591">
        <ele>260</ele>
        <time>2021-02-08T14:18:04Z</time>
      </trkpt>
      <trkpt lat="44.40791" lon="1.15922">
        <ele>258</ele>
        <time>2021-02-08T14:18:12Z</time>
      </trkpt>
      <trkpt lat="44.40789" lon="1.15925">
        <ele>258</ele>
        <time>2021-02-08T14:18:15Z</time>
      </trkpt>
      <trkpt lat="44.40784" lon="1.15935">
        <ele>256</ele>
        <time>2021-02-08T14:18:22Z</time>
      </trkpt>
      <trkpt lat="44.40783" lon="1.1594">
        <ele>256</ele>
        <time>2021-02-08T14:18:26Z</time>
      </trkpt>
      <trkpt lat="44.40764" lon="1.15969">
        <ele>256</ele>
        <time>2021-02-08T14:18:46Z</time>
      </trkpt>
      <trkpt lat="44.40755" lon="1.15979">
        <ele>256</ele>
        <time>2021-02-08T14:18:55Z</time>
      </trkpt>
      <trkpt lat="44.40747" lon="1.15984">
        <ele>256</ele>
        <time>2021-02-08T14:19:01Z</time>
      </trkpt>
      <trkpt lat="44.40733" lon="1.15988">
        <ele>257</ele>
        <time>2021-02-08T14:19:07Z</time>
      </trkpt>
      <trkpt lat="44.40724" lon="1.15995">
        <ele>258</ele>
        <time>2021-02-08T14:19:11Z</time>
      </trkpt>
      <trkpt lat="44.40604" lon="1.16042">
        <ele>263</ele>
        <time>2021-02-08T14:19:41Z</time>
      </trkpt>
      <trkpt lat="44.40579" lon="1.16045">
        <ele>263</ele>
        <time>2021-02-08T14:19:48Z</time>
      </trkpt>
      <trkpt lat="44.40576" lon="1.16046">
        <ele>263</ele>
        <time>2021-02-08T14:19:49Z</time>
      </trkpt>
      <trkpt lat="44.40572" lon="1.1605">
        <ele>263</ele>
        <time>2021-02-08T14:19:51Z</time>
      </trkpt>
      <trkpt lat="44.40541" lon="1.16094">
        <ele>261</ele>
        <time>2021-02-08T14:20:21Z</time>
      </trkpt>
      <trkpt lat="44.40535" lon="1.16111">
        <ele>260</ele>
        <time>2021-02-08T14:20:24Z</time>
      </trkpt>
      <trkpt lat="44.4053" lon="1.16129">
        <ele>260</ele>
        <time>2021-02-08T14:20:27Z</time>
      </trkpt>
      <trkpt lat="44.4051" lon="1.16181">
        <ele>260</ele>
        <time>2021-02-08T14:20:36Z</time>
      </trkpt>
      <trkpt lat="44.4049" lon="1.16265">
        <ele>259</ele>
        <time>2021-02-08T14:20:49Z</time>
      </trkpt>
      <trkpt lat="44.40447" lon="1.16327">
        <ele>261</ele>
        <time>2021-02-08T14:21:04Z</time>
      </trkpt>
      <trkpt lat="44.40369" lon="1.16494">
        <ele>264</ele>
        <time>2021-02-08T14:21:34Z</time>
      </trkpt>
      <trkpt lat="44.40313" lon="1.16605">
        <ele>265</ele>
        <time>2021-02-08T14:21:58Z</time>
      </trkpt>
      <trkpt lat="44.40307" lon="1.16627">
        <ele>265</ele>
        <time>2021-02-08T14:22:03Z</time>
      </trkpt>
      <trkpt lat="44.40304" lon="1.16633">
        <ele>265</ele>
        <time>2021-02-08T14:22:05Z</time>
      </trkpt>
      <trkpt lat="44.40288" lon="1.1666">
        <ele>265</ele>
        <time>2021-02-08T14:22:13Z</time>
      </trkpt>
      <trkpt lat="44.40286" lon="1.16664">
        <ele>265</ele>
        <time>2021-02-08T14:22:14Z</time>
      </trkpt>
      <trkpt lat="44.40283" lon="1.16674">
        <ele>265</ele>
        <time>2021-02-08T14:22:16Z</time>
      </trkpt>
      <trkpt lat="44.40283" lon="1.16678">
        <ele>265</ele>
        <time>2021-02-08T14:22:17Z</time>
      </trkpt>
      <trkpt lat="44.40284" lon="1.16682">
        <ele>265</ele>
        <time>2021-02-08T14:22:18Z</time>
      </trkpt>
      <trkpt lat="44.40291" lon="1.16713">
        <ele>266</ele>
        <time>2021-02-08T14:22:27Z</time>
      </trkpt>
      <trkpt lat="44.40299" lon="1.16726">
        <ele>266</ele>
        <time>2021-02-08T14:22:31Z</time>
      </trkpt>
      <trkpt lat="44.40305" lon="1.16735">
        <ele>267</ele>
        <time>2021-02-08T14:22:34Z</time>
      </trkpt>
      <trkpt lat="44.40332" lon="1.16752">
        <ele>268</ele>
        <time>2021-02-08T14:22:54Z</time>
      </trkpt>
      <trkpt lat="44.40334" lon="1.16753">
        <ele>268</ele>
        <time>2021-02-08T14:22:56Z</time>
      </trkpt>
      <trkpt lat="44.40337" lon="1.16755">
        <ele>268</ele>
        <time>2021-02-08T14:22:58Z</time>
      </trkpt>
      <trkpt lat="44.4036" lon="1.16768">
        <ele>265</ele>
        <time>2021-02-08T14:23:22Z</time>
      </trkpt>
      <trkpt lat="44.40364" lon="1.16767">
        <ele>265</ele>
        <time>2021-02-08T14:23:26Z</time>
      </trkpt>
      <trkpt lat="44.40367" lon="1.16765">
        <ele>263</ele>
        <time>2021-02-08T14:23:30Z</time>
      </trkpt>
      <trkpt lat="44.40373" lon="1.1676">
        <ele>259</ele>
        <time>2021-02-08T14:23:39Z</time>
      </trkpt>
      <trkpt lat="44.40375" lon="1.16759">
        <ele>259</ele>
        <time>2021-02-08T14:23:42Z</time>
      </trkpt>
      <trkpt lat="44.40379" lon="1.16757">
        <ele>259</ele>
        <time>2021-02-08T14:23:45Z</time>
      </trkpt>
      <trkpt lat="44.40382" lon="1.16755">
        <ele>258</ele>
        <time>2021-02-08T14:23:49Z</time>
      </trkpt>
      <trkpt lat="44.40385" lon="1.16752">
        <ele>257</ele>
        <time>2021-02-08T14:23:53Z</time>
      </trkpt>
      <trkpt lat="44.40389" lon="1.16751">
        <ele>256</ele>
        <time>2021-02-08T14:23:57Z</time>
      </trkpt>
      <trkpt lat="44.40392" lon="1.16748">
        <ele>257</ele>
        <time>2021-02-08T14:24:01Z</time>
      </trkpt>
      <trkpt lat="44.40399" lon="1.16743">
        <ele>257</ele>
        <time>2021-02-08T14:24:07Z</time>
      </trkpt>
      <trkpt lat="44.40402" lon="1.16742">
        <ele>258</ele>
        <time>2021-02-08T14:24:10Z</time>
      </trkpt>
      <trkpt lat="44.40411" lon="1.1674">
        <ele>256</ele>
        <time>2021-02-08T14:24:15Z</time>
      </trkpt>
      <trkpt lat="44.40417" lon="1.16737">
        <ele>254</ele>
        <time>2021-02-08T14:24:21Z</time>
      </trkpt>
      <trkpt lat="44.40419" lon="1.16734">
        <ele>254</ele>
        <time>2021-02-08T14:24:24Z</time>
      </trkpt>
      <trkpt lat="44.40422" lon="1.1673">
        <ele>253</ele>
        <time>2021-02-08T14:24:27Z</time>
      </trkpt>
      <trkpt lat="44.40425" lon="1.1672">
        <ele>251</ele>
        <time>2021-02-08T14:24:35Z</time>
      </trkpt>
      <trkpt lat="44.40436" lon="1.16702">
        <ele>247</ele>
        <time>2021-02-08T14:24:49Z</time>
      </trkpt>
      <trkpt lat="44.4046" lon="1.16681">
        <ele>248</ele>
        <time>2021-02-08T14:25:03Z</time>
      </trkpt>
      <trkpt lat="44.40467" lon="1.16677">
        <ele>250</ele>
        <time>2021-02-08T14:25:08Z</time>
      </trkpt>
      <trkpt lat="44.40497" lon="1.16665">
        <ele>248</ele>
        <time>2021-02-08T14:25:33Z</time>
      </trkpt>
      <trkpt lat="44.40516" lon="1.16654">
        <ele>245</ele>
        <time>2021-02-08T14:25:49Z</time>
      </trkpt>
      <trkpt lat="44.40523" lon="1.16649">
        <ele>241</ele>
        <time>2021-02-08T14:25:55Z</time>
      </trkpt>
      <trkpt lat="44.40563" lon="1.16634">
        <ele>227</ele>
        <time>2021-02-08T14:26:27Z</time>
      </trkpt>
      <trkpt lat="44.40572" lon="1.1663">
        <ele>226</ele>
        <time>2021-02-08T14:26:58Z</time>
      </trkpt>
      <trkpt lat="44.40616" lon="1.1662">
        <ele>227</ele>
        <time>2021-02-08T14:27:29Z</time>
      </trkpt>
      <trkpt lat="44.4063" lon="1.16618">
        <ele>226</ele>
        <time>2021-02-08T14:27:41Z</time>
      </trkpt>
      <trkpt lat="44.40633" lon="1.16615">
        <ele>226</ele>
        <time>2021-02-08T14:27:45Z</time>
      </trkpt>
      <trkpt lat="44.40637" lon="1.16614">
        <ele>226</ele>
        <time>2021-02-08T14:27:48Z</time>
      </trkpt>
      <trkpt lat="44.4064" lon="1.16611">
        <ele>226</ele>
        <time>2021-02-08T14:27:51Z</time>
      </trkpt>
      <trkpt lat="44.40683" lon="1.16597">
        <ele>221</ele>
        <time>2021-02-08T14:28:23Z</time>
      </trkpt>
      <trkpt lat="44.40687" lon="1.16596">
        <ele>220</ele>
        <time>2021-02-08T14:28:26Z</time>
      </trkpt>
      <trkpt lat="44.40701" lon="1.16588">
        <ele>217</ele>
        <time>2021-02-08T14:28:37Z</time>
      </trkpt>
      <trkpt lat="44.40717" lon="1.16585">
        <ele>214</ele>
        <time>2021-02-08T14:28:49Z</time>
      </trkpt>
      <trkpt lat="44.40727" lon="1.16585">
        <ele>212</ele>
        <time>2021-02-08T14:29:10Z</time>
      </trkpt>
      <trkpt lat="44.40741" lon="1.16581">
        <ele>212</ele>
        <time>2021-02-08T14:29:21Z</time>
      </trkpt>
      <trkpt lat="44.40754" lon="1.16577">
        <ele>212</ele>
        <time>2021-02-08T14:29:32Z</time>
      </trkpt>
      <trkpt lat="44.40777" lon="1.16559">
        <ele>211</ele>
        <time>2021-02-08T14:29:52Z</time>
      </trkpt>
      <trkpt lat="44.40786" lon="1.16548">
        <ele>211</ele>
        <time>2021-02-08T14:30:01Z</time>
      </trkpt>
      <trkpt lat="44.40789" lon="1.16545">
        <ele>211</ele>
        <time>2021-02-08T14:30:04Z</time>
      </trkpt>
      <trkpt lat="44.40802" lon="1.16525">
        <ele>209</ele>
        <time>2021-02-08T14:30:16Z</time>
      </trkpt>
      <trkpt lat="44.40805" lon="1.16517">
        <ele>209</ele>
        <time>2021-02-08T14:30:20Z</time>
      </trkpt>
      <trkpt lat="44.40808" lon="1.16512">
        <ele>209</ele>
        <time>2021-02-08T14:30:23Z</time>
      </trkpt>
      <trkpt lat="44.40814" lon="1.1651">
        <ele>208</ele>
        <time>2021-02-08T14:30:29Z</time>
      </trkpt>
      <trkpt lat="44.40818" lon="1.16509">
        <ele>208</ele>
        <time>2021-02-08T14:31:35Z</time>
      </trkpt>
      <trkpt lat="44.4082" lon="1.16506">
        <ele>207</ele>
        <time>2021-02-08T14:31:41Z</time>
      </trkpt>
      <trkpt lat="44.40821" lon="1.16501">
        <ele>205</ele>
        <time>2021-02-08T14:31:44Z</time>
      </trkpt>
      <trkpt lat="44.40826" lon="1.16491">
        <ele>202</ele>
        <time>2021-02-08T14:31:50Z</time>
      </trkpt>
      <trkpt lat="44.40827" lon="1.16485">
        <ele>202</ele>
        <time>2021-02-08T14:31:54Z</time>
      </trkpt>
      <trkpt lat="44.40829" lon="1.16481">
        <ele>203</ele>
        <time>2021-02-08T14:31:58Z</time>
      </trkpt>
      <trkpt lat="44.40835" lon="1.16472">
        <ele>204</ele>
        <time>2021-02-08T14:32:05Z</time>
      </trkpt>
      <trkpt lat="44.40839" lon="1.16463">
        <ele>203</ele>
        <time>2021-02-08T14:32:12Z</time>
      </trkpt>
      <trkpt lat="44.40842" lon="1.16459">
        <ele>203</ele>
        <time>2021-02-08T14:32:15Z</time>
      </trkpt>
      <trkpt lat="44.40846" lon="1.16451">
        <ele>203</ele>
        <time>2021-02-08T14:32:21Z</time>
      </trkpt>
      <trkpt lat="44.40849" lon="1.16441">
        <ele>204</ele>
        <time>2021-02-08T14:32:29Z</time>
      </trkpt>
      <trkpt lat="44.40851" lon="1.16436">
        <ele>204</ele>
        <time>2021-02-08T14:32:32Z</time>
      </trkpt>
      <trkpt lat="44.40854" lon="1.16433">
        <ele>203</ele>
        <time>2021-02-08T14:32:38Z</time>
      </trkpt>
      <trkpt lat="44.4087" lon="1.16395">
        <ele>203</ele>
        <time>2021-02-08T14:33:04Z</time>
      </trkpt>
      <trkpt lat="44.40871" lon="1.1639">
        <ele>203</ele>
        <time>2021-02-08T14:33:08Z</time>
      </trkpt>
      <trkpt lat="44.40882" lon="1.16363">
        <ele>203</ele>
        <time>2021-02-08T14:33:26Z</time>
      </trkpt>
      <trkpt lat="44.40887" lon="1.16349">
        <ele>203</ele>
        <time>2021-02-08T14:33:35Z</time>
      </trkpt>
      <trkpt lat="44.4089" lon="1.16345">
        <ele>203</ele>
        <time>2021-02-08T14:33:37Z</time>
      </trkpt>
      <trkpt lat="44.40896" lon="1.16336">
        <ele>201</ele>
        <time>2021-02-08T14:33:44Z</time>
      </trkpt>
      <trkpt lat="44.40899" lon="1.16336">
        <ele>201</ele>
        <time>2021-02-08T14:34:00Z</time>
      </trkpt>
      <trkpt lat="44.40911" lon="1.16331">
        <ele>202</ele>
        <time>2021-02-08T14:34:17Z</time>
      </trkpt>
      <trkpt lat="44.40915" lon="1.16326">
        <ele>201</ele>
        <time>2021-02-08T14:34:25Z</time>
      </trkpt>
      <trkpt lat="44.40917" lon="1.16324">
        <ele>200</ele>
        <time>2021-02-08T14:34:34Z</time>
      </trkpt>
      <trkpt lat="44.40925" lon="1.16316">
        <ele>199</ele>
        <time>2021-02-08T14:34:46Z</time>
      </trkpt>
      <trkpt lat="44.40928" lon="1.16308">
        <ele>199</ele>
        <time>2021-02-08T14:34:52Z</time>
      </trkpt>
      <trkpt lat="44.40933" lon="1.16302">
        <ele>199</ele>
        <time>2021-02-08T14:34:58Z</time>
      </trkpt>
      <trkpt lat="44.40936" lon="1.16298">
        <ele>199</ele>
        <time>2021-02-08T14:35:02Z</time>
      </trkpt>
      <trkpt lat="44.40939" lon="1.1629">
        <ele>199</ele>
        <time>2021-02-08T14:35:08Z</time>
      </trkpt>
      <trkpt lat="44.40942" lon="1.16286">
        <ele>199</ele>
        <time>2021-02-08T14:35:12Z</time>
      </trkpt>
      <trkpt lat="44.40945" lon="1.16278">
        <ele>199</ele>
        <time>2021-02-08T14:35:19Z</time>
      </trkpt>
      <trkpt lat="44.40948" lon="1.16263">
        <ele>200</ele>
        <time>2021-02-08T14:35:33Z</time>
      </trkpt>
      <trkpt lat="44.40953" lon="1.16254">
        <ele>202</ele>
        <time>2021-02-08T14:35:41Z</time>
      </trkpt>
      <trkpt lat="44.40963" lon="1.16241">
        <ele>197</ele>
        <time>2021-02-08T14:35:50Z</time>
      </trkpt>
      <trkpt lat="44.40968" lon="1.1624">
        <ele>195</ele>
        <time>2021-02-08T14:35:55Z</time>
      </trkpt>
      <trkpt lat="44.40973" lon="1.1624">
        <ele>194</ele>
        <time>2021-02-08T14:36:20Z</time>
      </trkpt>
      <trkpt lat="44.40983" lon="1.16237">
        <ele>191</ele>
        <time>2021-02-08T14:36:56Z</time>
      </trkpt>
      <trkpt lat="44.40991" lon="1.16234">
        <ele>190</ele>
        <time>2021-02-08T14:37:21Z</time>
      </trkpt>
      <trkpt lat="44.40995" lon="1.16235">
        <ele>190</ele>
        <time>2021-02-08T14:37:27Z</time>
      </trkpt>
      <trkpt lat="44.40996" lon="1.16231">
        <ele>189</ele>
        <time>2021-02-08T14:37:32Z</time>
      </trkpt>
      <trkpt lat="44.40999" lon="1.1623">
        <ele>189</ele>
        <time>2021-02-08T14:37:53Z</time>
      </trkpt>
      <trkpt lat="44.4101" lon="1.16229">
        <ele>189</ele>
        <time>2021-02-08T14:38:05Z</time>
      </trkpt>
      <trkpt lat="44.41013" lon="1.16227">
        <ele>190</ele>
        <time>2021-02-08T14:38:09Z</time>
      </trkpt>
      <trkpt lat="44.41033" lon="1.16219">
        <ele>190</ele>
        <time>2021-02-08T14:38:31Z</time>
      </trkpt>
      <trkpt lat="44.41037" lon="1.16217">
        <ele>190</ele>
        <time>2021-02-08T14:38:36Z</time>
      </trkpt>
      <trkpt lat="44.4104" lon="1.16214">
        <ele>191</ele>
        <time>2021-02-08T14:38:41Z</time>
      </trkpt>
      <trkpt lat="44.41082" lon="1.16205">
        <ele>186</ele>
        <time>2021-02-08T14:39:12Z</time>
      </trkpt>
      <trkpt lat="44.41124" lon="1.16194">
        <ele>182</ele>
        <time>2021-02-08T14:39:36Z</time>
      </trkpt>
      <trkpt lat="44.41134" lon="1.16194">
        <ele>181</ele>
        <time>2021-02-08T14:39:42Z</time>
      </trkpt>
      <trkpt lat="44.41141" lon="1.16191">
        <ele>180</ele>
        <time>2021-02-08T14:39:47Z</time>
      </trkpt>
      <trkpt lat="44.41144" lon="1.16188">
        <ele>179</ele>
        <time>2021-02-08T14:39:52Z</time>
      </trkpt>
      <trkpt lat="44.41148" lon="1.16189">
        <ele>180</ele>
        <time>2021-02-08T14:39:56Z</time>
      </trkpt>
      <trkpt lat="44.41151" lon="1.16186">
        <ele>179</ele>
        <time>2021-02-08T14:40:02Z</time>
      </trkpt>
      <trkpt lat="44.41154" lon="1.16183">
        <ele>179</ele>
        <time>2021-02-08T14:40:04Z</time>
      </trkpt>
      <trkpt lat="44.41158" lon="1.16183">
        <ele>179</ele>
        <time>2021-02-08T14:40:07Z</time>
      </trkpt>
      <trkpt lat="44.41162" lon="1.16181">
        <ele>179</ele>
        <time>2021-02-08T14:40:12Z</time>
      </trkpt>
      <trkpt lat="44.41164" lon="1.16176">
        <ele>178</ele>
        <time>2021-02-08T14:40:17Z</time>
      </trkpt>
      <trkpt lat="44.4117" lon="1.16169">
        <ele>177</ele>
        <time>2021-02-08T14:40:29Z</time>
      </trkpt>
      <trkpt lat="44.41173" lon="1.16167">
        <ele>177</ele>
        <time>2021-02-08T14:40:32Z</time>
      </trkpt>
      <trkpt lat="44.41182" lon="1.16163">
        <ele>176</ele>
        <time>2021-02-08T14:40:39Z</time>
      </trkpt>
      <trkpt lat="44.41192" lon="1.1616">
        <ele>176</ele>
        <time>2021-02-08T14:40:46Z</time>
      </trkpt>
      <trkpt lat="44.41219" lon="1.16164">
        <ele>176</ele>
        <time>2021-02-08T14:41:13Z</time>
      </trkpt>
      <trkpt lat="44.41223" lon="1.16165">
        <ele>175</ele>
        <time>2021-02-08T14:41:15Z</time>
      </trkpt>
      <trkpt lat="44.41267" lon="1.16179">
        <ele>175</ele>
        <time>2021-02-08T14:41:46Z</time>
      </trkpt>
      <trkpt lat="44.4129" lon="1.16193">
        <ele>173</ele>
        <time>2021-02-08T14:42:04Z</time>
      </trkpt>
      <trkpt lat="44.41302" lon="1.16197">
        <ele>172</ele>
        <time>2021-02-08T14:42:14Z</time>
      </trkpt>
      <trkpt lat="44.41306" lon="1.16198">
        <ele>172</ele>
        <time>2021-02-08T14:42:17Z</time>
      </trkpt>
      <trkpt lat="44.4131" lon="1.16198">
        <ele>173</ele>
        <time>2021-02-08T14:42:20Z</time>
      </trkpt>
      <trkpt lat="44.41341" lon="1.16205">
        <ele>170</ele>
        <time>2021-02-08T14:42:51Z</time>
      </trkpt>
      <trkpt lat="44.41363" lon="1.16206">
        <ele>169</ele>
        <time>2021-02-08T14:43:21Z</time>
      </trkpt>
      <trkpt lat="44.41375" lon="1.16207">
        <ele>170</ele>
        <time>2021-02-08T14:43:30Z</time>
      </trkpt>
      <trkpt lat="44.41379" lon="1.16207">
        <ele>170</ele>
        <time>2021-02-08T14:43:34Z</time>
      </trkpt>
      <trkpt lat="44.41394" lon="1.16208">
        <ele>171</ele>
        <time>2021-02-08T14:43:48Z</time>
      </trkpt>
      <trkpt lat="44.41401" lon="1.1621">
        <ele>170</ele>
        <time>2021-02-08T14:43:52Z</time>
      </trkpt>
      <trkpt lat="44.41404" lon="1.16208">
        <ele>169</ele>
        <time>2021-02-08T14:43:55Z</time>
      </trkpt>
      <trkpt lat="44.41407" lon="1.16207">
        <ele>168</ele>
        <time>2021-02-08T14:43:58Z</time>
      </trkpt>
      <trkpt lat="44.41429" lon="1.16211">
        <ele>170</ele>
        <time>2021-02-08T14:44:15Z</time>
      </trkpt>
      <trkpt lat="44.41437" lon="1.1621">
        <ele>173</ele>
        <time>2021-02-08T14:44:21Z</time>
      </trkpt>
      <trkpt lat="44.41443" lon="1.16207">
        <ele>175</ele>
        <time>2021-02-08T14:44:27Z</time>
      </trkpt>
      <trkpt lat="44.41445" lon="1.16203">
        <ele>176</ele>
        <time>2021-02-08T14:44:30Z</time>
      </trkpt>
      <trkpt lat="44.41449" lon="1.16196">
        <ele>177</ele>
        <time>2021-02-08T14:44:35Z</time>
      </trkpt>
      <trkpt lat="44.41452" lon="1.16194">
        <ele>177</ele>
        <time>2021-02-08T14:44:37Z</time>
      </trkpt>
      <trkpt lat="44.41466" lon="1.16179">
        <ele>179</ele>
        <time>2021-02-08T14:44:50Z</time>
      </trkpt>
      <trkpt lat="44.41469" lon="1.16175">
        <ele>180</ele>
        <time>2021-02-08T14:45:07Z</time>
      </trkpt>
      <trkpt lat="44.41472" lon="1.16171">
        <ele>179</ele>
        <time>2021-02-08T14:45:12Z</time>
      </trkpt>
      <trkpt lat="44.41492" lon="1.16135">
        <ele>179</ele>
        <time>2021-02-08T14:45:40Z</time>
      </trkpt>
      <trkpt lat="44.41493" lon="1.1613">
        <ele>179</ele>
        <time>2021-02-08T14:45:44Z</time>
      </trkpt>
      <trkpt lat="44.41495" lon="1.16125">
        <ele>178</ele>
        <time>2021-02-08T14:45:48Z</time>
      </trkpt>
      <trkpt lat="44.41501" lon="1.16117">
        <ele>178</ele>
        <time>2021-02-08T14:45:54Z</time>
      </trkpt>
      <trkpt lat="44.41519" lon="1.16097">
        <ele>181</ele>
        <time>2021-02-08T14:46:09Z</time>
      </trkpt>
      <trkpt lat="44.41522" lon="1.16094">
        <ele>180</ele>
        <time>2021-02-08T14:46:13Z</time>
      </trkpt>
      <trkpt lat="44.41524" lon="1.1609">
        <ele>181</ele>
        <time>2021-02-08T14:46:23Z</time>
      </trkpt>
      <trkpt lat="44.41496" lon="1.16057">
        <ele>184</ele>
        <time>2021-02-08T14:46:54Z</time>
      </trkpt>
      <trkpt lat="44.41493" lon="1.16057">
        <ele>184</ele>
        <time>2021-02-08T14:46:56Z</time>
      </trkpt>
      <trkpt lat="44.41489" lon="1.16055">
        <ele>183</ele>
        <time>2021-02-08T14:47:00Z</time>
      </trkpt>
      <trkpt lat="44.41481" lon="1.16047">
        <ele>182</ele>
        <time>2021-02-08T14:47:07Z</time>
      </trkpt>
      <trkpt lat="44.41478" lon="1.16043">
        <ele>181</ele>
        <time>2021-02-08T14:47:11Z</time>
      </trkpt>
      <trkpt lat="44.41475" lon="1.16043">
        <ele>181</ele>
        <time>2021-02-08T14:47:13Z</time>
      </trkpt>
      <trkpt lat="44.41458" lon="1.16013">
        <ele>181</ele>
        <time>2021-02-08T14:47:35Z</time>
      </trkpt>
      <trkpt lat="44.41456" lon="1.1601">
        <ele>185</ele>
        <time>2021-02-08T14:48:09Z</time>
      </trkpt>
      <trkpt lat="44.41453" lon="1.16002">
        <ele>187</ele>
        <time>2021-02-08T14:48:14Z</time>
      </trkpt>
      <trkpt lat="44.41446" lon="1.15982">
        <ele>188</ele>
        <time>2021-02-08T14:48:27Z</time>
      </trkpt>
      <trkpt lat="44.41444" lon="1.15976">
        <ele>188</ele>
        <time>2021-02-08T14:48:33Z</time>
      </trkpt>
      <trkpt lat="44.41421" lon="1.1594">
        <ele>188</ele>
        <time>2021-02-08T14:49:03Z</time>
      </trkpt>
      <trkpt lat="44.41414" lon="1.15932">
        <ele>188</ele>
        <time>2021-02-08T14:49:10Z</time>
      </trkpt>
      <trkpt lat="44.41411" lon="1.15929">
        <ele>188</ele>
        <time>2021-02-08T14:49:13Z</time>
      </trkpt>
      <trkpt lat="44.41409" lon="1.15925">
        <ele>187</ele>
        <time>2021-02-08T14:49:16Z</time>
      </trkpt>
      <trkpt lat="44.41397" lon="1.15911">
        <ele>189</ele>
        <time>2021-02-08T14:49:28Z</time>
      </trkpt>
      <trkpt lat="44.41393" lon="1.15902">
        <ele>189</ele>
        <time>2021-02-08T14:49:34Z</time>
      </trkpt>
      <trkpt lat="44.41392" lon="1.15896">
        <ele>190</ele>
        <time>2021-02-08T14:49:37Z</time>
      </trkpt>
      <trkpt lat="44.41403" lon="1.1588">
        <ele>192</ele>
        <time>2021-02-08T14:49:48Z</time>
      </trkpt>
      <trkpt lat="44.41416" lon="1.15867">
        <ele>193</ele>
        <time>2021-02-08T14:50:01Z</time>
      </trkpt>
      <trkpt lat="44.41419" lon="1.15863">
        <ele>192</ele>
        <time>2021-02-08T14:50:05Z</time>
      </trkpt>
      <trkpt lat="44.41421" lon="1.15861">
        <ele>192</ele>
        <time>2021-02-08T14:50:08Z</time>
      </trkpt>
      <trkpt lat="44.41424" lon="1.15859">
        <ele>191</ele>
        <time>2021-02-08T14:50:11Z</time>
      </trkpt>
      <trkpt lat="44.41427" lon="1.15859">
        <ele>190</ele>
        <time>2021-02-08T14:50:14Z</time>
      </trkpt>
      <trkpt lat="44.41431" lon="1.15864">
        <ele>191</ele>
        <time>2021-02-08T14:50:18Z</time>
      </trkpt>
      <trkpt lat="44.41433" lon="1.15866">
        <ele>190</ele>
        <time>2021-02-08T14:50:27Z</time>
      </trkpt>
      <trkpt lat="44.41463" lon="1.1588">
        <ele>187</ele>
        <time>2021-02-08T14:50:56Z</time>
      </trkpt>
      <trkpt lat="44.41465" lon="1.1588">
        <ele>186</ele>
        <time>2021-02-08T14:50:59Z</time>
      </trkpt>
      <trkpt lat="44.41467" lon="1.1588">
        <ele>187</ele>
        <time>2021-02-08T14:51:16Z</time>
      </trkpt>
      <trkpt lat="44.41471" lon="1.15877">
        <ele>187</ele>
        <time>2021-02-08T14:51:23Z</time>
      </trkpt>
      <trkpt lat="44.41483" lon="1.15865">
        <ele>183</ele>
        <time>2021-02-08T14:51:36Z</time>
      </trkpt>
      <trkpt lat="44.41493" lon="1.15857">
        <ele>182</ele>
        <time>2021-02-08T14:51:44Z</time>
      </trkpt>
      <trkpt lat="44.41504" lon="1.15846">
        <ele>181</ele>
        <time>2021-02-08T14:51:56Z</time>
      </trkpt>
      <trkpt lat="44.41522" lon="1.1583">
        <ele>177</ele>
        <time>2021-02-08T14:52:13Z</time>
      </trkpt>
      <trkpt lat="44.41529" lon="1.15824">
        <ele>177</ele>
        <time>2021-02-08T14:52:20Z</time>
      </trkpt>
      <trkpt lat="44.41532" lon="1.15822">
        <ele>177</ele>
        <time>2021-02-08T14:52:23Z</time>
      </trkpt>
      <trkpt lat="44.41538" lon="1.15818">
        <ele>175</ele>
        <time>2021-02-08T14:52:30Z</time>
      </trkpt>
      <trkpt lat="44.41553" lon="1.15809">
        <ele>175</ele>
        <time>2021-02-08T14:52:44Z</time>
      </trkpt>
      <trkpt lat="44.41562" lon="1.15802">
        <ele>175</ele>
        <time>2021-02-08T14:52:52Z</time>
      </trkpt>
      <trkpt lat="44.41567" lon="1.15797">
        <ele>174</ele>
        <time>2021-02-08T14:53:00Z</time>
      </trkpt>
      <trkpt lat="44.41568" lon="1.15794">
        <ele>174</ele>
        <time>2021-02-08T14:53:03Z</time>
      </trkpt>
      <trkpt lat="44.41585" lon="1.15771">
        <ele>172</ele>
        <time>2021-02-08T14:53:24Z</time>
      </trkpt>
      <trkpt lat="44.41587" lon="1.15767">
        <ele>172</ele>
        <time>2021-02-08T14:53:27Z</time>
      </trkpt>
      <trkpt lat="44.4159" lon="1.15757">
        <ele>171</ele>
        <time>2021-02-08T14:53:33Z</time>
      </trkpt>
      <trkpt lat="44.41594" lon="1.15749">
        <ele>171</ele>
        <time>2021-02-08T14:53:38Z</time>
      </trkpt>
      <trkpt lat="44.41598" lon="1.1574">
        <ele>171</ele>
        <time>2021-02-08T14:53:44Z</time>
      </trkpt>
      <trkpt lat="44.4161" lon="1.15724">
        <ele>172</ele>
        <time>2021-02-08T14:53:56Z</time>
      </trkpt>
      <trkpt lat="44.4161" lon="1.15719">
        <ele>174</ele>
        <time>2021-02-08T14:54:01Z</time>
      </trkpt>
      <trkpt lat="44.41613" lon="1.15713">
        <ele>174</ele>
        <time>2021-02-08T14:54:05Z</time>
      </trkpt>
      <trkpt lat="44.41629" lon="1.15684">
        <ele>173</ele>
        <time>2021-02-08T14:54:24Z</time>
      </trkpt>
      <trkpt lat="44.4163" lon="1.1568">
        <ele>174</ele>
        <time>2021-02-08T14:54:27Z</time>
      </trkpt>
      <trkpt lat="44.41632" lon="1.15675">
        <ele>174</ele>
        <time>2021-02-08T14:54:30Z</time>
      </trkpt>
      <trkpt lat="44.41635" lon="1.15673">
        <ele>174</ele>
        <time>2021-02-08T14:54:32Z</time>
      </trkpt>
      <trkpt lat="44.41643" lon="1.15662">
        <ele>174</ele>
        <time>2021-02-08T14:54:41Z</time>
      </trkpt>
      <trkpt lat="44.41646" lon="1.15661">
        <ele>174</ele>
        <time>2021-02-08T14:54:44Z</time>
      </trkpt>
      <trkpt lat="44.41649" lon="1.15664">
        <ele>174</ele>
        <time>2021-02-08T14:54:47Z</time>
      </trkpt>
      <trkpt lat="44.41651" lon="1.15669">
        <ele>173</ele>
        <time>2021-02-08T14:54:50Z</time>
      </trkpt>
      <trkpt lat="44.4165" lon="1.15674">
        <ele>172</ele>
        <time>2021-02-08T14:55:01Z</time>
      </trkpt>
      <trkpt lat="44.41655" lon="1.157">
        <ele>166</ele>
        <time>2021-02-08T14:55:15Z</time>
      </trkpt>
      <trkpt lat="44.4166" lon="1.1572">
        <ele>163</ele>
        <time>2021-02-08T14:55:24Z</time>
      </trkpt>
      <trkpt lat="44.41661" lon="1.15729">
        <ele>161</ele>
        <time>2021-02-08T14:55:28Z</time>
      </trkpt>
      <trkpt lat="44.41661" lon="1.15733">
        <ele>161</ele>
        <time>2021-02-08T14:55:30Z</time>
      </trkpt>
      <trkpt lat="44.41661" lon="1.15741">
        <ele>160</ele>
        <time>2021-02-08T14:55:35Z</time>
      </trkpt>
      <trkpt lat="44.4166" lon="1.15745">
        <ele>160</ele>
        <time>2021-02-08T14:55:38Z</time>
      </trkpt>
      <trkpt lat="44.41659" lon="1.15748">
        <ele>160</ele>
        <time>2021-02-08T14:55:40Z</time>
      </trkpt>
      <trkpt lat="44.41659" lon="1.15752">
        <ele>161</ele>
        <time>2021-02-08T14:55:42Z</time>
      </trkpt>
      <trkpt lat="44.41658" lon="1.15755">
        <ele>161</ele>
        <time>2021-02-08T14:55:44Z</time>
      </trkpt>
      <trkpt lat="44.41655" lon="1.15762">
        <ele>161</ele>
        <time>2021-02-08T14:55:48Z</time>
      </trkpt>
      <trkpt lat="44.41655" lon="1.15766">
        <ele>162</ele>
        <time>2021-02-08T14:55:51Z</time>
      </trkpt>
      <trkpt lat="44.41645" lon="1.15783">
        <ele>167</ele>
        <time>2021-02-08T14:56:05Z</time>
      </trkpt>
      <trkpt lat="44.41643" lon="1.15782">
        <ele>168</ele>
        <time>2021-02-08T14:56:13Z</time>
      </trkpt>
      <trkpt lat="44.4164" lon="1.15782">
        <ele>169</ele>
        <time>2021-02-08T14:56:25Z</time>
      </trkpt>
    </trkseg>
  </trk>
</gpx>